Yonges Island, South Carolina
Current Conditions -  °F | °C
As of 12:35 PM on Friday 31 Oct 2014 (Local Time) from KJZI Reporting Station
Clear Clear  
Wind Chill: 68°   Ceiling: Unl
Heat Index: 68°   Visibility: 10mi
Dew Point: 52°   Wind: 8mph
Humidity: 56%   Direction: 40°NE
Pressure: 29.86"   Gusts: NA
Location:  32.7025°N, 80.284°W
Report Text: KJZI 311635Z AUTO 04007KT 10SM CLR 20/11 A2986 RMK A02 P000
Loading
Personal Weather Stations






























Interactive Weather Map
Tropical Storm Tracking
New forecast layout! Learn more

10-Day Weather Forecast

Advertisements
Track Severe Weather on mobile